createdAt,value
2018-12-17T00:00:19.574Z,-0.20
2018-12-17T00:02:48.943Z,-0.29
2018-12-17T00:05:18.699Z,-0.29
2018-12-17T00:07:47.954Z,-0.36
2018-12-17T00:10:17.157Z,-0.33
2018-12-17T00:12:46.407Z,-0.26
2018-12-17T00:15:16.174Z,-0.35
2018-12-17T00:17:45.399Z,-0.25
2018-12-17T00:20:14.677Z,-0.39
2018-12-17T00:22:43.929Z,-0.24
2018-12-17T00:25:13.735Z,-0.23
2018-12-17T00:27:43.079Z,-0.23
2018-12-17T00:30:12.296Z,-0.29
2018-12-17T00:32:41.539Z,-0.28
2018-12-17T00:35:10.726Z,-0.27
2018-12-17T00:37:39.962Z,-0.23
2018-12-17T00:40:10.817Z,-0.20
2018-12-17T00:42:40.273Z,-0.22
2018-12-17T00:45:09.636Z,-0.11
2018-12-17T00:47:39.933Z,-0.21
2018-12-17T00:50:09.231Z,-0.22
2018-12-17T00:52:38.497Z,-0.17
2018-12-17T00:55:07.964Z,-0.17
2018-12-17T00:57:38.069Z,-0.23
2018-12-17T01:00:09.798Z,-0.22
2018-12-17T01:02:39.064Z,-0.31
2018-12-17T01:05:09.819Z,-0.23
2018-12-17T01:07:39.167Z,-0.25
2018-12-17T01:10:09.637Z,-0.17
2018-12-17T01:12:38.847Z,-0.05
2018-12-17T01:15:08.754Z,-0.07
2018-12-17T01:17:38.051Z,-0.01
2018-12-17T01:20:07.808Z,0.08
2018-12-17T01:22:37.157Z,-0.08
2018-12-17T01:25:06.713Z,-0.01
2018-12-17T01:27:37.071Z,-0.11
2018-12-17T01:30:08.142Z,-0.11
2018-12-17T01:32:39.065Z,-0.06
2018-12-17T01:35:09.195Z,-0.07
2018-12-17T01:37:38.536Z,-0.01
2018-12-17T01:40:08.021Z,-0.01
2018-12-17T01:42:37.257Z,-0.14
2018-12-17T01:45:07.869Z,-0.15
2018-12-17T01:47:37.172Z,-0.18
2018-12-17T01:50:06.596Z,-0.16
2018-12-17T01:52:37.418Z,-0.17
2018-12-17T01:55:06.757Z,-0.15
2018-12-17T01:57:36.705Z,-0.46
2018-12-17T02:00:06.403Z,-0.25
2018-12-17T02:02:35.679Z,-0.33
2018-12-17T02:05:05.166Z,-0.35
2018-12-17T02:07:34.940Z,-0.47
2018-12-17T02:10:04.519Z,-0.52
2018-12-17T02:12:33.760Z,-0.52
2018-12-17T02:15:03.013Z,-0.39
2018-12-17T02:17:32.297Z,-0.32
2018-12-17T02:20:01.616Z,-0.44
2018-12-17T02:22:30.861Z,-0.48
2018-12-17T02:25:00.089Z,-0.42
2018-12-17T02:27:29.356Z,-0.37
2018-12-17T02:29:58.517Z,-0.31
2018-12-17T02:32:28.698Z,-0.34
2018-12-17T02:34:59.169Z,-0.47
2018-12-17T02:37:28.428Z,-0.43
2018-12-17T02:39:58.100Z,-0.54
2018-12-17T02:42:27.332Z,-0.40
2018-12-17T02:44:56.527Z,-0.37
2018-12-17T02:47:25.746Z,-0.44
2018-12-17T02:49:55.012Z,-0.48
2018-12-17T02:52:24.250Z,-0.50
2018-12-17T02:54:53.526Z,-0.52
2018-12-17T02:57:23.346Z,-0.51
2018-12-17T02:59:52.580Z,-0.45
2018-12-17T03:02:21.903Z,-0.41
2018-12-17T03:04:51.158Z,-0.42
2018-12-17T03:07:21.577Z,-0.54
2018-12-17T03:09:50.774Z,-0.59
2018-12-17T03:12:20.053Z,-0.69
2018-12-17T03:14:49.381Z,-0.79
2018-12-17T03:17:18.745Z,-0.89
2018-12-17T03:19:48.065Z,-0.97
2018-12-17T03:22:17.353Z,-1.01
2018-12-17T03:24:46.637Z,-1.00
2018-12-17T03:27:17.014Z,-0.91
2018-12-17T03:29:48.309Z,-0.94
2018-12-17T03:32:17.815Z,-0.95
2018-12-17T03:34:49.490Z,-1.00
2018-12-17T03:37:18.948Z,-0.81
2018-12-17T03:39:48.435Z,-0.80
2018-12-17T03:42:18.268Z,-0.88
2018-12-17T03:44:48.592Z,-0.97
2018-12-17T03:47:18.029Z,-1.02
2018-12-17T03:49:47.536Z,-1.03
2018-12-17T03:52:16.786Z,-1.06
2018-12-17T03:54:46.141Z,-1.08
2018-12-17T03:57:16.286Z,-1.20
2018-12-17T03:59:45.543Z,-1.07
2018-12-17T04:02:14.797Z,-1.05
2018-12-17T04:04:44.513Z,-0.98
2018-12-17T04:07:13.778Z,-1.02
2018-12-17T04:09:43.124Z,-1.06
2018-12-17T04:12:12.639Z,-0.91
2018-12-17T04:14:41.876Z,-1.00
2018-12-17T04:17:11.093Z,-1.05
2018-12-17T04:19:40.317Z,-1.05
2018-12-17T04:22:09.556Z,-1.12
2018-12-17T04:24:38.836Z,-1.25
2018-12-17T04:27:08.029Z,-1.37
2018-12-17T04:29:37.330Z,-1.56
2018-12-17T04:32:06.581Z,-1.67
2018-12-17T04:34:35.842Z,-1.75
2018-12-17T04:37:05.938Z,-1.91
2018-12-17T04:39:35.263Z,-2.03
2018-12-17T04:42:04.630Z,-2.17
2018-12-17T04:44:34.423Z,-2.20
2018-12-17T04:47:03.708Z,-2.28
2018-12-17T04:49:32.929Z,-2.21
2018-12-17T04:52:02.657Z,-2.27
2018-12-17T04:54:32.199Z,-2.48
2018-12-17T04:57:01.462Z,-2.75
2018-12-17T04:59:31.868Z,-2.91
2018-12-17T05:02:01.815Z,-2.94
2018-12-17T05:04:31.031Z,-2.98
2018-12-17T05:07:00.266Z,-3.14
2018-12-17T05:09:29.518Z,-3.18
2018-12-17T05:11:59.626Z,-3.23
2018-12-17T05:14:28.873Z,-3.26
2018-12-17T05:16:59.348Z,-3.33
2018-12-17T05:19:28.695Z,-3.14
2018-12-17T05:21:57.951Z,-3.15
2018-12-17T05:24:27.156Z,-3.20
2018-12-17T05:26:56.425Z,-3.31
2018-12-17T05:29:25.630Z,-3.43
2018-12-17T05:31:54.863Z,-3.49
2018-12-17T05:34:24.160Z,-3.56
2018-12-17T05:36:54.291Z,-3.63
2018-12-17T05:39:23.699Z,-3.62
2018-12-17T05:41:53.629Z,-4.23
2018-12-17T05:44:22.820Z,-3.53
2018-12-17T05:46:52.792Z,-3.64
2018-12-17T05:49:22.272Z,-3.72
2018-12-17T05:51:51.682Z,-3.72
2018-12-17T05:54:20.943Z,-3.61
2018-12-17T05:56:50.198Z,-3.75
2018-12-17T05:59:19.525Z,-3.83
2018-12-17T06:01:48.733Z,-3.72
2018-12-17T06:04:18.067Z,-3.72
2018-12-17T06:06:47.430Z,-3.62
2018-12-17T06:09:16.888Z,-3.53
2018-12-17T06:11:46.409Z,-3.62
2018-12-17T06:14:15.689Z,-3.71
2018-12-17T06:16:44.879Z,-3.80
2018-12-17T06:19:14.665Z,-3.90
2018-12-17T06:21:44.922Z,-3.89
2018-12-17T06:24:14.115Z,-3.86
2018-12-17T06:26:43.328Z,-3.83
2018-12-17T06:29:12.614Z,-3.91
2018-12-17T06:31:41.860Z,-3.79
2018-12-17T06:34:11.083Z,-3.85
2018-12-17T06:36:40.340Z,-3.94
2018-12-17T06:39:09.556Z,-3.95
2018-12-17T06:41:38.938Z,-4.04
2018-12-17T06:44:08.130Z,-3.98
2018-12-17T06:46:37.383Z,-3.88
2018-12-17T06:49:06.626Z,-3.89
2018-12-17T06:51:36.070Z,-3.88
2018-12-17T06:54:05.677Z,-3.93
2018-12-17T06:56:35.044Z,-4.13
2018-12-17T06:59:05.015Z,-4.29
2018-12-17T07:01:34.355Z,-4.25
2018-12-17T07:04:04.438Z,-4.17
2018-12-17T07:06:33.721Z,-4.16
2018-12-17T07:09:03.741Z,-4.26
2018-12-17T07:11:33.657Z,-4.17
2018-12-17T07:14:02.878Z,-4.27
2018-12-17T07:16:32.141Z,-4.33
2018-12-17T07:19:01.643Z,-4.34
2018-12-17T07:21:31.590Z,-4.33
2018-12-17T07:24:00.943Z,-4.34
2018-12-17T07:26:30.219Z,-4.30
2018-12-17T07:29:02.042Z,-4.23
2018-12-17T07:31:32.022Z,-4.01
2018-12-17T07:34:01.770Z,-3.93
2018-12-17T07:36:31.267Z,-3.91
2018-12-17T07:39:01.334Z,-3.78
2018-12-17T07:41:31.358Z,-3.71
2018-12-17T07:44:02.136Z,-3.68
2018-12-17T07:46:32.967Z,-3.40
2018-12-17T07:49:02.211Z,-3.40
2018-12-17T07:51:31.494Z,-3.35
2018-12-17T07:54:01.609Z,-3.32
2018-12-17T07:56:31.807Z,-3.33
2018-12-17T07:59:01.292Z,-3.32
2018-12-17T08:01:31.237Z,-3.24
2018-12-17T08:04:01.191Z,-3.29
2018-12-17T08:06:30.451Z,-3.32
2018-12-17T08:08:59.728Z,-3.31
2018-12-17T08:11:28.925Z,-3.21
2018-12-17T08:13:59.068Z,-3.13
2018-12-17T08:16:28.298Z,-3.24
2018-12-17T08:18:57.542Z,-3.27
2018-12-17T08:21:27.112Z,-3.27
2018-12-17T08:23:58.307Z,-3.29
2018-12-17T08:26:27.775Z,-3.47
2018-12-17T08:28:57.789Z,-3.47
2018-12-17T08:31:28.939Z,-3.39
2018-12-17T08:33:59.754Z,-3.55
2018-12-17T08:36:29.969Z,-3.61
2018-12-17T08:39:00.497Z,-3.48
2018-12-17T08:41:33.287Z,-3.57
2018-12-17T08:44:03.610Z,-3.64
2018-12-17T08:46:34.015Z,-3.69
2018-12-17T08:49:04.875Z,-3.71
2018-12-17T08:51:34.974Z,-3.76
2018-12-17T08:54:05.607Z,-3.80
2018-12-17T08:56:35.211Z,-3.90
2018-12-17T08:59:05.905Z,-3.96
2018-12-17T09:01:37.070Z,-3.87
2018-12-17T09:04:06.877Z,-3.76
2018-12-17T09:06:36.963Z,-3.49
2018-12-17T09:09:08.140Z,-3.26
2018-12-17T09:11:37.570Z,-3.04
2018-12-17T09:14:06.793Z,-2.83
2018-12-17T09:16:37.220Z,-2.70
2018-12-17T09:19:06.595Z,-2.48
2018-12-17T09:21:36.856Z,-2.27
2018-12-17T09:24:08.260Z,-1.99
2018-12-17T09:26:38.099Z,-1.75
2018-12-17T09:29:07.358Z,-1.53
2018-12-17T09:31:36.685Z,-1.30
2018-12-17T09:34:06.090Z,-1.18
2018-12-17T09:36:36.508Z,-1.08
2018-12-17T09:39:08.982Z,-0.89
2018-12-17T09:41:45.095Z,-0.80
2018-12-17T09:44:15.176Z,-0.78
2018-12-17T09:46:46.477Z,-0.75
2018-12-17T09:49:15.739Z,-0.69
2018-12-17T09:51:45.080Z,-0.70
2018-12-17T09:54:14.330Z,-0.69
2018-12-17T09:56:44.584Z,-0.60
2018-12-17T09:59:13.825Z,-0.55
2018-12-17T10:01:43.039Z,-0.53
2018-12-17T10:04:12.340Z,-0.47
2018-12-17T10:06:41.593Z,-0.44
2018-12-17T10:09:12.074Z,-0.38
2018-12-17T10:11:41.333Z,-0.29
2018-12-17T10:14:10.587Z,-0.25
2018-12-17T10:16:40.507Z,-0.22
2018-12-17T10:19:10.445Z,-0.26
2018-12-17T10:21:39.738Z,-0.22
2018-12-17T10:24:09.270Z,-0.18
2018-12-17T10:26:38.974Z,-0.07
2018-12-17T10:29:08.237Z,-0.02
2018-12-17T10:31:38.227Z,0.04
2018-12-17T10:34:08.585Z,0.22
2018-12-17T10:36:37.844Z,0.20
2018-12-17T10:39:07.942Z,0.33
2018-12-17T10:41:37.298Z,0.38
2018-12-17T10:44:07.060Z,0.29
2018-12-17T10:46:36.363Z,0.24
2018-12-17T10:49:06.723Z,0.35
2018-12-17T10:51:35.986Z,0.45
2018-12-17T10:54:06.459Z,0.45
2018-12-17T10:56:35.717Z,0.47
2018-12-17T10:59:04.946Z,0.45
2018-12-17T11:01:39.524Z,0.46
2018-12-17T11:04:15.025Z,0.43
2018-12-17T11:06:44.422Z,0.39
2018-12-17T11:09:20.007Z,0.46
2018-12-17T11:11:49.357Z,0.51
2018-12-17T11:14:18.626Z,0.53
2018-12-17T11:16:47.931Z,0.53
2018-12-17T11:19:18.259Z,0.52
2018-12-17T11:21:48.574Z,0.40
2018-12-17T11:24:17.884Z,0.15
2018-12-17T11:26:47.895Z,0.20
2018-12-17T11:29:18.680Z,0.26
2018-12-17T11:31:47.898Z,0.12
2018-12-17T11:34:17.141Z,0.06
2018-12-17T11:36:46.822Z,0.00
2018-12-17T11:39:16.406Z,0.05
2018-12-17T11:41:45.740Z,0.03
2018-12-17T11:44:15.011Z,0.14
2018-12-17T11:46:44.472Z,0.11
2018-12-17T11:49:14.785Z,0.15
2018-12-17T11:51:44.165Z,0.23
2018-12-17T11:54:14.345Z,0.25
2018-12-17T11:58:52.236Z,0.23
2018-12-17T12:01:27.970Z,0.17
2018-12-17T12:03:58.443Z,0.46
2018-12-17T12:06:27.795Z,0.47
2018-12-17T12:08:58.042Z,0.50
2018-12-17T12:11:27.563Z,0.53
2018-12-17T12:13:56.842Z,0.54
2018-12-17T12:16:26.068Z,0.58
2018-12-17T12:18:55.441Z,0.59
2018-12-17T12:21:25.447Z,0.29
2018-12-17T12:23:55.944Z,0.50
2018-12-17T12:26:25.975Z,0.54
2018-12-17T12:28:58.963Z,0.46
2018-12-17T12:31:28.686Z,0.41
2018-12-17T12:33:59.995Z,0.29
2018-12-17T12:36:30.112Z,0.20
2018-12-17T12:38:59.936Z,0.14
2018-12-17T12:41:29.244Z,0.05
2018-12-17T12:43:58.486Z,0.03
2018-12-17T12:46:28.529Z,-0.05
2018-12-17T12:48:58.164Z,-0.05
2018-12-17T12:51:32.581Z,0.01
2018-12-17T12:54:00.711Z,-0.10
2018-12-17T12:56:29.995Z,-0.25
2018-12-17T12:58:59.497Z,-0.24
2018-12-17T13:01:28.845Z,-0.16
2018-12-17T13:03:58.128Z,-0.12
2018-12-17T13:06:28.947Z,-0.10
2018-12-17T13:08:59.910Z,-0.10
2018-12-17T13:11:42.441Z,-0.15
2018-12-17T13:14:14.332Z,-0.16
2018-12-17T13:16:43.655Z,-0.24
2018-12-17T13:19:12.934Z,-0.19
2018-12-17T13:21:42.278Z,-0.27
2018-12-17T13:24:12.631Z,-0.26
2018-12-17T13:26:42.296Z,-0.23
2018-12-17T13:29:11.617Z,-0.21
2018-12-17T13:31:40.971Z,-0.28
2018-12-17T13:34:11.196Z,-0.35
2018-12-17T13:36:40.668Z,-0.50
2018-12-17T13:39:10.236Z,-0.62
2018-12-17T13:41:39.524Z,-0.70
2018-12-17T13:44:08.959Z,-0.84
2018-12-17T13:46:38.808Z,-0.98
2018-12-17T13:49:08.994Z,-1.01
2018-12-17T13:51:42.666Z,-1.10
2018-12-17T13:54:12.315Z,-1.13
2018-12-17T13:56:42.757Z,-1.13
2018-12-17T13:59:13.188Z,-1.28
2018-12-17T14:01:42.512Z,-1.33
2018-12-17T14:04:13.253Z,-1.45
2018-12-17T14:06:42.560Z,-1.70
2018-12-17T14:09:11.833Z,-1.62
2018-12-17T14:11:41.103Z,-1.76
2018-12-17T14:14:10.859Z,-1.84
2018-12-17T14:16:45.604Z,-1.87
2018-12-17T14:19:20.190Z,-1.95
2018-12-17T14:21:54.824Z,-2.05
2018-12-17T14:24:24.172Z,-2.16
2018-12-17T14:26:53.566Z,-2.31
2018-12-17T14:29:22.773Z,-2.15
2018-12-17T14:31:52.243Z,-2.24
2018-12-17T14:34:22.213Z,-2.31
2018-12-17T14:36:52.227Z,-2.27
2018-12-17T14:39:28.461Z,-2.28
2018-12-17T14:41:57.743Z,-2.26
2018-12-17T14:44:32.320Z,-2.24
2018-12-17T14:47:02.239Z,-2.21
2018-12-17T14:49:31.559Z,-1.99
2018-12-17T14:52:00.797Z,-1.91
2018-12-17T14:54:30.668Z,-1.83
2018-12-17T14:57:00.076Z,-1.72
2018-12-17T14:59:29.431Z,-1.76
2018-12-17T15:02:01.623Z,-1.81
2018-12-17T15:04:30.932Z,-1.81
2018-12-17T15:07:00.246Z,-1.74
2018-12-17T15:09:31.381Z,-1.70
2018-12-17T15:12:01.431Z,-1.68
2018-12-17T15:14:30.709Z,-1.52
2018-12-17T15:17:04.958Z,-1.50
2018-12-17T15:19:34.287Z,-1.57
2018-12-17T15:22:04.181Z,-1.39
2018-12-17T15:24:40.233Z,-1.42
2018-12-17T15:27:09.218Z,-1.57
2018-12-17T15:29:38.927Z,-1.49
2018-12-17T15:32:09.544Z,-1.56
2018-12-17T15:34:38.946Z,-1.44
2018-12-17T15:37:08.341Z,-1.40
2018-12-17T15:39:37.833Z,-1.56
2018-12-17T15:42:07.099Z,-1.52
2018-12-17T15:44:38.454Z,-1.48
2018-12-17T15:47:07.811Z,-1.45
2018-12-17T15:49:37.529Z,-1.47
2018-12-17T15:52:07.941Z,-1.46
2018-12-17T15:54:37.723Z,-1.47
2018-12-17T15:57:12.402Z,-1.52
2018-12-17T15:59:44.924Z,-1.44
2018-12-17T16:02:14.275Z,-1.43
2018-12-17T16:04:48.548Z,-1.40
2018-12-17T16:07:18.019Z,-1.50
2018-12-17T16:09:47.432Z,-1.50
2018-12-17T16:12:16.787Z,-1.59
2018-12-17T16:14:46.834Z,-1.64
2018-12-17T16:17:16.176Z,-1.48
2018-12-17T16:19:45.803Z,-1.44
2018-12-17T16:22:15.170Z,-1.44
2018-12-17T16:24:44.463Z,-1.48
2018-12-17T16:27:19.387Z,-1.36
2018-12-17T16:29:49.009Z,-1.47
2018-12-17T16:32:19.122Z,-1.58
2018-12-17T16:34:49.272Z,-1.44
2018-12-17T16:37:18.628Z,-1.48
2018-12-17T16:39:47.993Z,-1.65
2018-12-17T16:42:17.229Z,-1.52
2018-12-17T16:44:46.545Z,-1.56
2018-12-17T16:47:16.431Z,-1.47
2018-12-17T16:49:45.853Z,-1.54
2018-12-17T16:52:15.117Z,-1.45
2018-12-17T16:54:44.472Z,-1.34
2018-12-17T16:57:14.050Z,-1.36
2018-12-17T16:59:50.492Z,-1.44
2018-12-17T17:02:19.909Z,-1.53
2018-12-17T17:04:51.211Z,-1.45
2018-12-17T17:07:20.874Z,-1.55
2018-12-17T17:09:50.244Z,-1.59
2018-12-17T17:12:19.528Z,-1.54
2018-12-17T17:14:48.878Z,-1.44
2018-12-17T17:17:18.141Z,-1.46
2018-12-17T17:19:50.830Z,-1.57
2018-12-17T17:22:18.655Z,-1.55
2018-12-17T17:24:47.911Z,-1.46
2018-12-17T17:27:19.496Z,-1.50
2018-12-17T17:29:49.253Z,-1.61
2018-12-17T17:32:18.513Z,-1.53
2018-12-17T17:34:47.851Z,-1.42
2018-12-17T17:37:17.275Z,-1.49
2018-12-17T17:39:46.619Z,-1.45
2018-12-17T17:42:16.888Z,-1.40
2018-12-17T17:44:46.941Z,-1.46
2018-12-17T17:47:16.208Z,-1.60
2018-12-17T17:49:46.212Z,-1.68
2018-12-17T17:52:15.449Z,-1.76
2018-12-17T17:54:47.839Z,-1.69
2018-12-17T17:57:17.866Z,-1.78
2018-12-17T17:59:47.135Z,-1.59
2018-12-17T18:02:18.978Z,-1.69
2018-12-17T18:04:48.540Z,-1.74
2018-12-17T18:07:17.819Z,-1.53
2018-12-17T18:09:47.177Z,-1.52
2018-12-17T18:12:16.540Z,-1.57
2018-12-17T18:14:46.067Z,-1.48
2018-12-17T18:17:15.415Z,-1.46
2018-12-17T18:19:45.022Z,-1.41
2018-12-17T18:22:14.309Z,-1.40
2018-12-17T18:24:44.047Z,-1.72
2018-12-17T18:27:16.126Z,-1.47
2018-12-17T18:29:45.443Z,-1.37
2018-12-17T18:32:15.008Z,-1.27
2018-12-17T18:34:44.273Z,-1.40
2018-12-17T18:37:13.507Z,-1.54
2018-12-17T18:39:42.842Z,-1.58
2018-12-17T18:42:12.973Z,-1.66
2018-12-17T18:44:43.201Z,-1.71
2018-12-17T18:47:12.473Z,-1.66
2018-12-17T18:49:41.842Z,-1.64
2018-12-17T18:52:11.233Z,-1.56
2018-12-17T18:54:40.939Z,-1.43
2018-12-17T18:57:10.156Z,-1.31
2018-12-17T18:59:39.393Z,-1.36
2018-12-17T19:02:08.620Z,-1.33
2018-12-17T19:04:37.847Z,-1.34
2018-12-17T19:07:07.085Z,-1.32
2018-12-17T19:09:36.458Z,-1.30
2018-12-17T19:12:05.940Z,-1.21
2018-12-17T19:14:35.266Z,-1.35
2018-12-17T19:17:04.973Z,-1.23
2018-12-17T19:19:34.255Z,-1.17
2018-12-17T19:22:03.786Z,-1.25
2018-12-17T19:24:33.142Z,-1.17
2018-12-17T19:27:02.664Z,-1.16
2018-12-17T19:29:32.000Z,-1.28
2018-12-17T19:32:02.178Z,-1.15
2018-12-17T19:34:31.558Z,-1.30
2018-12-17T19:37:00.825Z,-1.22
2018-12-17T19:39:30.824Z,-1.13
2018-12-17T19:42:03.370Z,-1.22
2018-12-17T19:44:33.425Z,-1.21
2018-12-17T19:47:04.018Z,-1.14
2018-12-17T19:49:33.306Z,-1.19
2018-12-17T19:52:03.280Z,-1.15
2018-12-17T19:54:32.545Z,-1.15
2018-12-17T19:57:02.362Z,-1.11
2018-12-17T19:59:38.007Z,-1.15
2018-12-17T20:02:07.270Z,-1.07
2018-12-17T20:04:36.538Z,-1.11
2018-12-17T20:07:05.838Z,-1.03
2018-12-17T20:09:35.180Z,-1.06
2018-12-17T20:12:04.526Z,-1.12
2018-12-17T20:14:34.917Z,-1.16
2018-12-17T20:17:04.281Z,-1.12
2018-12-17T20:19:33.555Z,-1.03
2018-12-17T20:22:03.068Z,-1.03
2018-12-17T20:24:33.130Z,-0.99
2018-12-17T20:27:02.447Z,-0.96
2018-12-17T20:29:33.281Z,-1.05
2018-12-17T20:32:04.206Z,-1.06
2018-12-17T20:34:33.496Z,-0.98
2018-12-17T20:37:02.813Z,-1.00
2018-12-17T20:39:32.123Z,-1.16
2018-12-17T20:44:46.406Z,-1.14
2018-12-17T20:47:16.622Z,-1.22
2018-12-17T20:49:45.943Z,-1.30
2018-12-17T20:52:15.246Z,-1.12
2018-12-17T20:54:44.735Z,-1.19
2018-12-17T20:57:14.147Z,-1.01
2018-12-17T20:59:43.451Z,-1.05
2018-12-17T21:02:13.944Z,-1.10
2018-12-17T21:04:45.594Z,-1.19
2018-12-17T21:07:17.247Z,-1.26
2018-12-17T21:09:46.894Z,-1.22
2018-12-17T21:12:17.315Z,-1.20
2018-12-17T21:14:49.280Z,-1.11
2018-12-17T21:17:19.588Z,-1.29
2018-12-17T21:19:49.667Z,-1.32
2018-12-17T21:25:09.864Z,-1.40
2018-12-17T21:27:39.470Z,-1.39
2018-12-17T21:30:14.951Z,-1.37
2018-12-17T21:32:44.418Z,-1.44
2018-12-17T21:35:13.876Z,-1.38
2018-12-17T21:37:48.294Z,-1.41
2018-12-17T21:40:19.310Z,-1.22
2018-12-17T21:42:49.947Z,-1.16
2018-12-17T21:45:19.306Z,-1.10
2018-12-17T21:47:49.462Z,-1.14
2018-12-17T21:50:19.100Z,-1.18
2018-12-17T21:52:50.285Z,-1.15
2018-12-17T21:55:20.669Z,-1.31
2018-12-17T21:57:49.938Z,-1.24
2018-12-17T22:00:19.251Z,-1.20
2018-12-17T22:02:49.024Z,-1.09
2018-12-17T22:05:18.263Z,-1.01
2018-12-17T22:07:48.482Z,-1.06
2018-12-17T22:10:23.231Z,-1.18
2018-12-17T22:12:54.162Z,-1.22
2018-12-17T22:15:24.491Z,-1.35
2018-12-17T22:17:56.027Z,-1.19
2018-12-17T22:20:26.138Z,-1.03
2018-12-17T22:22:57.723Z,-1.08
2018-12-17T22:25:28.485Z,-1.06
2018-12-17T22:27:57.840Z,-1.00
2018-12-17T22:30:27.278Z,-1.03
2018-12-17T22:32:56.620Z,-1.03
2018-12-17T22:35:25.935Z,-0.95
2018-12-17T22:37:55.523Z,-0.89
2018-12-17T22:40:24.916Z,-0.94
2018-12-17T22:42:54.900Z,-1.01
2018-12-17T22:45:24.632Z,-1.05
2018-12-17T22:47:55.738Z,-1.14
2018-12-17T22:50:25.379Z,-1.28
2018-12-17T22:52:54.657Z,-1.31
2018-12-17T22:55:24.179Z,-1.27
2018-12-17T22:57:54.322Z,-1.15
2018-12-17T23:00:25.230Z,-1.19
2018-12-17T23:02:54.477Z,-1.26
2018-12-17T23:05:24.449Z,-1.25
2018-12-17T23:07:53.887Z,-1.15
2018-12-17T23:10:38.674Z,-1.09
2018-12-17T23:13:19.215Z,-1.21
2018-12-17T23:15:59.584Z,-1.26
2018-12-17T23:18:27.803Z,-1.22
2018-12-17T23:20:57.457Z,-1.25
2018-12-17T23:23:27.831Z,-1.26
2018-12-17T23:25:58.423Z,-1.19
2018-12-17T23:28:27.951Z,-1.09
2018-12-17T23:30:57.245Z,-0.96
2018-12-17T23:33:32.673Z,-1.04
2018-12-17T23:35:58.263Z,-0.92
2018-12-17T23:38:27.526Z,-0.98
2018-12-17T23:40:57.489Z,-0.87
2018-12-17T23:43:27.652Z,-0.91
2018-12-17T23:45:56.884Z,-0.90
2018-12-17T23:48:26.230Z,-1.02
2018-12-17T23:50:55.630Z,-0.94
2018-12-17T23:53:26.096Z,-0.90
2018-12-17T23:55:55.322Z,-0.90
2018-12-17T23:58:24.562Z,-0.81
